createdAt,value
2018-06-18T00:02:06.935Z,17.6
2018-06-18T00:07:04.655Z,17.6
2018-06-18T00:12:04.247Z,17.7
2018-06-18T00:17:05.069Z,17.7
2018-06-18T00:22:04.684Z,17.7
2018-06-18T00:27:04.536Z,17.7
2018-06-18T00:32:04.465Z,17.7
2018-06-18T00:37:04.771Z,17.6
2018-06-18T00:42:04.498Z,17.5
2018-06-18T00:47:04.710Z,17.4
2018-06-18T00:52:04.200Z,17.3
2018-06-18T00:57:04.898Z,17.1
2018-06-18T01:02:04.161Z,17.0
2018-06-18T01:07:03.936Z,16.9
2018-06-18T01:12:04.705Z,16.8
2018-06-18T01:17:04.613Z,16.7
2018-06-18T01:22:04.515Z,16.7
2018-06-18T01:27:04.515Z,16.6
2018-06-18T01:32:04.427Z,16.6
2018-06-18T01:37:04.228Z,16.6
2018-06-18T01:42:04.176Z,16.6
2018-06-18T01:47:04.420Z,16.6
2018-06-18T01:52:04.184Z,16.7
2018-06-18T01:57:03.887Z,16.8
2018-06-18T02:02:04.890Z,16.9
2018-06-18T02:07:04.304Z,17.0
2018-06-18T02:12:04.421Z,17.0
2018-06-18T02:17:04.819Z,17.0
2018-06-18T02:22:03.890Z,17.0
2018-06-18T02:27:04.551Z,17.1
2018-06-18T02:32:04.694Z,17.1
2018-06-18T02:37:04.045Z,17.2
2018-06-18T02:42:04.519Z,17.1
2018-06-18T02:47:11.869Z,17.1
2018-06-18T02:52:04.223Z,17.1
2018-06-18T02:57:04.263Z,17.1
2018-06-18T03:02:14.359Z,17.0
2018-06-18T03:07:04.578Z,17.0
2018-06-18T03:12:04.016Z,16.9
2018-06-18T03:17:13.778Z,16.9
2018-06-18T03:22:04.231Z,16.9
2018-06-18T03:27:04.779Z,16.8
2018-06-18T03:32:14.144Z,16.8
2018-06-18T03:37:04.914Z,16.8
2018-06-18T03:42:04.617Z,16.8
2018-06-18T03:47:14.007Z,16.6
2018-06-18T03:52:03.808Z,16.5
2018-06-18T03:57:04.356Z,16.4
2018-06-18T04:02:13.750Z,16.3
2018-06-18T04:07:04.575Z,16.3
2018-06-18T04:12:04.052Z,16.4
2018-06-18T04:17:14.153Z,16.5
2018-06-18T04:22:04.564Z,17.0
2018-06-18T04:27:04.543Z,17.3
2018-06-18T04:32:14.299Z,17.2
2018-06-18T04:37:04.364Z,17.3
2018-06-18T04:42:04.023Z,17.5
2018-06-18T04:47:14.059Z,17.4
2018-06-18T04:52:04.507Z,17.7
2018-06-18T04:57:04.197Z,17.6
2018-06-18T05:02:15.257Z,17.8
2018-06-18T05:07:04.722Z,18.0
2018-06-18T05:12:04.187Z,17.9
2018-06-18T05:17:14.497Z,17.9
2018-06-18T05:22:04.468Z,17.9
2018-06-18T05:27:04.137Z,17.9
2018-06-18T05:32:14.678Z,18.0
2018-06-18T05:37:04.969Z,18.0
2018-06-18T05:42:04.923Z,18.1
2018-06-18T05:47:14.164Z,18.4
2018-06-18T05:52:04.590Z,19.1
2018-06-18T05:57:04.384Z,19.6
2018-06-18T06:02:13.847Z,19.6
2018-06-18T06:07:04.305Z,20.1
2018-06-18T06:12:04.017Z,20.1
2018-06-18T06:17:14.205Z,20.0
2018-06-18T06:22:04.347Z,19.9
2018-06-18T06:27:04.162Z,20.0
2018-06-18T06:32:12.757Z,20.7
2018-06-18T06:37:05.103Z,21.2
2018-06-18T06:42:04.072Z,21.1
2018-06-18T06:47:17.706Z,21.0
2018-06-18T06:52:04.115Z,21.1
2018-06-18T06:57:03.891Z,21.3
2018-06-18T07:02:14.436Z,21.6
2018-06-18T07:07:04.484Z,21.7
2018-06-18T07:12:04.312Z,21.6
2018-06-18T07:17:13.988Z,21.8
2018-06-18T07:22:04.018Z,21.8
2018-06-18T07:27:04.481Z,22.1
2018-06-18T07:32:14.997Z,22.1
2018-06-18T07:37:04.461Z,22.2
2018-06-18T07:42:04.295Z,22.2
2018-06-18T07:47:18.124Z,22.8
2018-06-18T07:52:04.604Z,22.9
2018-06-18T07:57:04.393Z,22.8
2018-06-18T08:02:14.474Z,23.4
2018-06-18T08:07:04.542Z,23.7
2018-06-18T08:12:04.457Z,23.7
2018-06-18T08:17:14.159Z,23.5
2018-06-18T08:22:04.656Z,24.3
2018-06-18T08:27:04.835Z,25.0
2018-06-18T08:32:14.313Z,24.4
2018-06-18T08:37:04.357Z,24.4
2018-06-18T08:42:04.239Z,24.2
2018-06-18T08:47:12.830Z,24.4
2018-06-18T08:52:04.080Z,24.3
2018-06-18T08:57:04.825Z,24.6
2018-06-18T09:02:16.613Z,25.0
2018-06-18T09:07:04.547Z,25.1
2018-06-18T09:12:04.238Z,24.7
2018-06-18T09:17:14.182Z,24.9
2018-06-18T09:22:04.555Z,25.3
2018-06-18T09:27:04.492Z,25.3
2018-06-18T09:32:16.961Z,25.4
2018-06-18T09:37:04.647Z,25.8
2018-06-18T09:42:04.244Z,25.5
2018-06-18T09:47:13.780Z,25.3
2018-06-18T09:52:03.844Z,26.0
2018-06-18T09:57:04.515Z,26.0
2018-06-18T10:02:13.707Z,25.9
2018-06-18T10:07:04.564Z,26.8
2018-06-18T10:12:04.492Z,26.8
2018-06-18T10:17:14.136Z,27.7
2018-06-18T10:22:04.695Z,27.6
2018-06-18T10:27:04.695Z,27.9
2018-06-18T10:32:14.025Z,28.0
2018-06-18T10:37:04.471Z,27.2
2018-06-18T10:42:04.066Z,27.2
2018-06-18T10:47:13.575Z,27.5
2018-06-18T10:52:04.101Z,27.9
2018-06-18T10:57:04.168Z,28.6
2018-06-18T11:02:13.433Z,28.7
2018-06-18T11:07:04.012Z,28.7
2018-06-18T11:12:04.566Z,28.5
2018-06-18T11:17:14.048Z,29.1
2018-06-18T11:22:04.200Z,29.4
2018-06-18T11:27:04.273Z,29.9
2018-06-18T11:32:15.722Z,30.4
2018-06-18T11:37:04.337Z,30.4
2018-06-18T11:42:04.402Z,30.6
2018-06-18T11:47:14.044Z,31.0
2018-06-18T11:52:04.216Z,30.9
2018-06-18T11:57:04.290Z,31.1
2018-06-18T12:02:04.331Z,31.1
2018-06-18T12:07:04.004Z,31.3
2018-06-18T12:12:04.854Z,30.5
2018-06-18T12:17:14.594Z,30.4
2018-06-18T12:22:04.087Z,31.1
2018-06-18T12:27:04.952Z,31.3
2018-06-18T12:32:14.199Z,31.3
2018-06-18T12:37:03.914Z,32.0
2018-06-18T12:42:06.576Z,31.8
2018-06-18T12:47:14.177Z,31.6
2018-06-18T12:52:04.005Z,32.0
2018-06-18T12:57:04.836Z,32.2
2018-06-18T13:02:17.309Z,31.5
2018-06-18T13:07:04.474Z,31.1
2018-06-18T13:12:04.254Z,31.3
2018-06-18T13:17:15.277Z,31.5
2018-06-18T13:22:04.229Z,31.1
2018-06-18T13:27:03.985Z,31.1
2018-06-18T13:32:14.258Z,30.9
2018-06-18T13:37:04.502Z,30.9
2018-06-18T13:42:04.514Z,31.0
2018-06-18T13:47:14.298Z,31.0
2018-06-18T13:52:04.090Z,30.9
2018-06-18T13:57:04.270Z,31.5
2018-06-18T14:02:13.341Z,32.2
2018-06-18T14:07:04.881Z,32.0
2018-06-18T14:12:04.902Z,31.3
2018-06-18T14:17:14.814Z,30.7
2018-06-18T14:22:03.909Z,30.6
2018-06-18T14:27:04.455Z,31.0
2018-06-18T14:32:13.963Z,30.6
2018-06-18T14:37:04.711Z,30.1
2018-06-18T14:42:04.353Z,29.8
2018-06-18T14:47:13.958Z,30.5
2018-06-18T14:52:04.036Z,30.5
2018-06-18T14:57:04.712Z,34.4
2018-06-18T15:02:14.379Z,38.2
2018-06-18T15:07:04.570Z,39.9
2018-06-18T15:12:04.017Z,37.7
2018-06-18T15:17:14.119Z,35.8
2018-06-18T15:22:04.073Z,36.4
2018-06-18T15:27:04.458Z,43.0
2018-06-18T15:32:14.666Z,46.2
2018-06-18T15:37:04.412Z,42.2
2018-06-18T15:42:04.143Z,39.2
2018-06-18T15:47:14.600Z,35.8
2018-06-18T15:52:03.944Z,33.8
2018-06-18T15:57:04.664Z,32.4
2018-06-18T16:02:13.694Z,31.3
2018-06-18T16:07:04.772Z,30.2
2018-06-18T16:12:04.359Z,30.2
2018-06-18T16:17:14.963Z,30.0
2018-06-18T16:22:04.661Z,29.7
2018-06-18T16:27:04.448Z,29.7
2018-06-18T16:32:14.141Z,29.7
2018-06-18T16:37:04.194Z,30.0
2018-06-18T16:42:04.445Z,33.2
2018-06-18T16:47:15.207Z,39.8
2018-06-18T16:52:04.591Z,39.7
2018-06-18T16:57:03.940Z,37.4
2018-06-18T17:02:11.815Z,34.5
2018-06-18T17:07:05.018Z,33.1
2018-06-18T17:12:04.284Z,30.9
2018-06-18T17:17:14.230Z,29.4
2018-06-18T17:22:04.647Z,30.0
2018-06-18T17:27:04.853Z,32.2
2018-06-18T17:32:12.033Z,31.5
2018-06-18T17:37:04.725Z,36.7
2018-06-18T17:42:04.884Z,40.5
2018-06-18T17:47:12.346Z,42.2
2018-06-18T17:52:03.976Z,41.9
2018-06-18T17:57:04.870Z,41.6
2018-06-18T18:02:09.612Z,41.6
2018-06-18T18:07:03.932Z,41.1
2018-06-18T18:12:04.877Z,40.6
2018-06-18T18:17:13.844Z,33.6
2018-06-18T18:22:04.186Z,33.4
2018-06-18T18:27:04.184Z,30.7
2018-06-18T18:32:13.891Z,33.4
2018-06-18T18:37:04.342Z,31.1
2018-06-18T18:42:03.926Z,28.1
2018-06-18T18:47:13.747Z,25.4
2018-06-18T18:52:04.253Z,25.3
2018-06-18T18:57:04.889Z,24.6
2018-06-18T19:02:13.290Z,24.0
2018-06-18T19:07:04.306Z,23.3
2018-06-18T19:12:04.871Z,23.2
2018-06-18T19:17:15.506Z,22.9
2018-06-18T19:22:04.522Z,22.6
2018-06-18T19:27:04.077Z,22.2
2018-06-18T19:32:14.111Z,21.9
2018-06-18T19:37:04.215Z,21.7
2018-06-18T19:42:04.842Z,21.1
2018-06-18T19:47:15.242Z,21.0
2018-06-18T19:52:04.694Z,20.7
2018-06-18T19:57:04.769Z,20.7
2018-06-18T20:02:11.272Z,20.6
2018-06-18T20:07:04.568Z,20.4
2018-06-18T20:12:04.573Z,20.4
2018-06-18T20:17:11.488Z,20.4
2018-06-18T20:22:04.230Z,20.3
2018-06-18T20:27:04.947Z,20.2
2018-06-18T20:32:08.708Z,20.1
2018-06-18T20:37:04.082Z,20.0
2018-06-18T20:42:04.070Z,20.0
2018-06-18T20:47:07.635Z,19.8
2018-06-18T20:52:04.353Z,19.8
2018-06-18T20:57:04.801Z,19.5
2018-06-18T21:02:04.505Z,19.5
2018-06-18T21:07:04.940Z,19.2
2018-06-18T21:12:04.598Z,19.1
2018-06-18T21:17:05.358Z,19.0
2018-06-18T21:22:04.140Z,18.9
2018-06-18T21:27:04.541Z,18.8
2018-06-18T21:32:04.768Z,18.7
2018-06-18T21:37:03.976Z,18.7
2018-06-18T21:42:05.011Z,18.6
2018-06-18T21:47:04.126Z,18.4
2018-06-18T21:52:04.423Z,18.3
2018-06-18T21:57:04.633Z,18.3
2018-06-18T22:02:04.191Z,18.2
2018-06-18T22:07:04.761Z,18.1
2018-06-18T22:12:04.895Z,18.0
2018-06-18T22:22:17.395Z,17.8
2018-06-18T22:27:17.204Z,17.7
2018-06-18T22:32:17.379Z,17.6
2018-06-18T22:37:16.341Z,17.5
2018-06-18T22:42:17.027Z,17.4
2018-06-18T22:47:16.819Z,17.4
2018-06-18T22:52:16.414Z,17.4
2018-06-18T22:57:17.021Z,17.3
2018-06-18T23:02:16.898Z,17.2
2018-06-18T23:07:16.869Z,17.0
2018-06-18T23:12:04.579Z,16.9
2018-06-18T23:17:04.645Z,16.9
2018-06-18T23:22:04.059Z,16.8
2018-06-18T23:27:04.003Z,16.8
2018-06-18T23:32:04.820Z,16.6
2018-06-18T23:37:04.804Z,16.5
2018-06-18T23:42:04.529Z,16.5
2018-06-18T23:47:04.394Z,16.5
2018-06-18T23:52:04.382Z,16.3
2018-06-18T23:57:04.333Z,16.3
